Belmont, MA (02478)

10:05 PM EDT del 02 Settembre 2014 (GMT -0400)
Cushing Square | Change Station
CLOSE
Current Station
Stazione meteo personale
Location: Belmont, MA
Altitudine: 135 ft
Stazioni meteo nelle vicinanze

Alt. 135 ft 42.39 °N, 71.18 °W | Updated 7 seconds ago

Sereno
Sereno
73.8 °F
Sembra 72 °F
N
0.0
Vento Variabile Vento da SO
Gusts 0.0 mph

Oggi
Massima -- | Minima -- °F
--% Possibilità di precip.
Ieri
Massima -- | Minima -- °F
Precip. -- in
6:10 AM 7:17 PM
Primo quarto, 57% visible
Pressione 29.78 in
Visibilità 10.0 miglia
Nuvole Sereno
Indice di calore 72 °F
Punto di rugiada 70 °F
Umidità 88%
Piovosità 0.00 in
Spessore del manto nevoso Non disponibile.
Raggi UV 0 fuori da 12
Polline 8.20 fuori da 12
PM2.5 Buono
Flu Activity Non disponibile.
METAR KBED 030156Z 20008KT 10SM CLR 24/22 A2975 RMK AO2 SLP084 T02390217

More Conditions Fewer Conditions

Pressione 29.78 in
Visibilità 10.0 miglia
Nuvole Sereno
Indice di calore 72 °F
Punto di rugiada 70 °F
Umidità 88%
Piovosità 0.00 in
Spessore del manto nevoso Non disponibile.
Raggi UV 0 fuori da 12
Polline 8.20 fuori da 12
PM2.5 Buono
Flu Activity Non disponibile.
METAR KBED 030156Z 20008KT 10SM CLR 24/22 A2975 RMK AO2 SLP084 T02390217

More Conditions Fewer Conditions

10-Day Weather Forecast

Almanac

Astronomia

Sep. 02, 2014 Alba Tramonto
Ora attuale 06:10 EDT 19:17 EDT
Crepuscolo civile 05:42 EDT 19:45 EDT
Crepuscolo nautico 05:07 EDT 20:20 EDT
Crepuscolo astronomico 04:31 EDT 20:56 EDT
Luna 14:00 EDT (9/2) 23:59 EDT (9/2)
Estensione della luce visibile 14h 03m
Lunghezza del giorno
13h 06m
Tomorrow will be 2m 45s shorter.
Primo quarto, 57% of the Moon is Illuminated
Oggi
Primo quarto
Set 8
Luna piena
Set 15
Ultimo quarto
Set 24
Nuovo
Ott 1
Primo quarto

Gli estremi di oggi

State Highs State Lows

Community

WunderPhotos

Upload Photos

1,749,837 foto caricate!

Nearby

Qualità dell'aria

  Qualità dell'aria Indice AQ Inquinante
Ieri Buono
PM2.5
Ieri Buono
OZONE
Attuale Buono
PM2.5
Martedì Moderato
PM2.5
Martedì Buono
OZONE
Mercoledì Buono
PM2.5
Mercoledì Buono
OZONE

Profondità neve

Stazione Profondità Altitudine
Non sono state evidenziate nuove nevicate

Attività sismica

Città  Distanza Mag. Data & Ora
Non sono state riportate attività sismiche nelle vicinanze.
Minimo Magnitudo Mostrato è 2.5.

Temperature delle acque costiere

Località Temperatura
Boston, MA 66.9 °F
Providence, RI 75.0 °F
Fall River, MA 75.9 °F
Conimicut Light, RI 75.0 °F

Stazioni meteo nelle vicinanze